PWSweather.com
Personal Weather Stations
Station Observations
KETX01
Ketx, PatraGR 26331

KetxPatraGR 26331

Lat: 38.238889, Lon: 21.751111

Elevation: 56

Station Type: Davis Instruments / Vantage Pro2 Plus

http://meteopatras.eu

Latest ConditionsUpdated 1:50:01 PM GMT+02:02 Friday, Apr 19, 2019
Currently Today's Max Today's Min Today's Average
Temperature 66.6°F19.2°C 66.6°F19.2°C 50.4°F10.2°C 57.1°F13.9°C
Dew Point 42.8°F6.0°C 46.2°F7.9°C 42.1°F5.6°C 44.1°F6.7°C
Winds 4.6 mph W7.4 kmh W 11.5 mph -18.5 kmh - - 2.2 mph 3.5 kmh
Wind Gusts 10.4 mph16.7 kmh 15.0 mph24.1 kmh - -
Humidity 42% 78% 41% 63%
Pressure 30.22 in1023.4 mb 30.25 in1024.4 mb 30.20 in1022.7 mb -
Hour Temp Dew Point Humidity Winds Wind Gusts Pressure Precip Precip Rate Daily Precip Total
01:50 PM 66.6°F19.2°C 42.8°F6.0°C 42% 4.6 mph W7.4 kmh W 10.4 mph16.7 kmh 30.22 in1023.4 mb - 0.00 in0.0 mm 0.00 in0.0 mm
01:45 PM 66.4°F19.1°C 42.6°F5.9°C 42% 3.5 mph NNW5.6 kmh NNW 6.9 mph11.1 kmh 30.23 in1023.7 mb - 0.00 in0.0 mm 0.00 in0.0 mm
01:40 PM 66.5°F19.2°C 42.1°F5.6°C 41% 3.5 mph W5.6 kmh W 3.5 mph5.6 kmh 30.23 in1023.7 mb - 0.00 in0.0 mm 0.00 in0.0 mm
01:35 PM 66.4°F19.1°C 43.2°F6.2°C 43% 2.3 mph WNW3.7 kmh WNW 3.5 mph5.6 kmh 30.23 in1023.7 mb - 0.00 in0.0 mm 0.00 in0.0 mm
01:30 PM 66.4°F19.1°C 43.8°F6.6°C 44% 4.6 mph NW7.4 kmh NW 9.2 mph14.8 kmh 30.23 in1023.7 mb - 0.00 in0.0 mm 0.00 in0.0 mm
01:25 PM 66.5°F19.2°C 44.5°F6.9°C 45% 4.6 mph N7.4 kmh N 5.8 mph9.3 kmh 30.23 in1023.7 mb - 0.00 in0.0 mm 0.00 in0.0 mm
01:20 PM 66.4°F19.1°C 42.6°F5.9°C 42% 4.6 mph N7.4 kmh N 5.8 mph9.3 kmh 30.22 in1023.4 mb - 0.00 in0.0 mm 0.00 in0.0 mm
01:15 PM 66.2°F19.0°C 44.2°F6.8°C 45% 4.6 mph N7.4 kmh N 8.1 mph13.0 kmh 30.22 in1023.4 mb - 0.00 in0.0 mm 0.00 in0.0 mm
01:10 PM 66.5°F19.2°C 43.3°F6.3°C 43% 5.8 mph N9.3 kmh N 9.2 mph14.8 kmh 30.23 in1023.7 mb - 0.00 in0.0 mm 0.00 in0.0 mm
01:05 PM 66.6°F19.2°C 44.6°F7.0°C 45% 4.6 mph N7.4 kmh N 11.5 mph18.5 kmh 30.23 in1023.7 mb - 0.00 in0.0 mm 0.00 in0.0 mm
01:00 PM 66.6°F19.2°C 44.0°F6.7°C 44% 4.6 mph NNW7.4 kmh NNW 8.1 mph13.0 kmh 30.23 in1023.7 mb - 0.00 in0.0 mm 0.00 in0.0 mm
12:55 PM 66.5°F19.2°C 45.1°F7.3°C 46% 3.5 mph N5.6 kmh N 4.6 mph7.4 kmh 30.23 in1023.7 mb - 0.00 in0.0 mm 0.00 in0.0 mm
12:50 PM 66.2°F19.0°C 45.4°F7.4°C 47% 2.3 mph NE3.7 kmh NE 4.6 mph7.4 kmh 30.23 in1023.7 mb - 0.00 in0.0 mm 0.00 in0.0 mm
12:45 PM 65.6°F18.7°C 45.4°F7.4°C 48% 3.5 mph N5.6 kmh N 8.1 mph13.0 kmh 30.23 in1023.7 mb - 0.00 in0.0 mm 0.00 in0.0 mm
12:40 PM 65.5°F18.6°C 44.7°F7.1°C 47% 6.9 mph N11.1 kmh N 8.1 mph13.0 kmh 30.23 in1023.7 mb - 0.00 in0.0 mm 0.00 in0.0 mm
12:35 PM 66.0°F18.9°C 45.2°F7.3°C 47% 6.9 mph N11.1 kmh N 10.4 mph16.7 kmh 30.23 in1023.7 mb - 0.00 in0.0 mm 0.00 in0.0 mm
12:30 PM 65.8°F18.8°C 45.6°F7.6°C 48% 5.8 mph NNE9.3 kmh NNE 8.1 mph13.0 kmh 30.23 in1023.7 mb - 0.00 in0.0 mm 0.00 in0.0 mm
12:25 PM 65.6°F18.7°C 45.4°F7.4°C 48% 5.8 mph N9.3 kmh N 8.1 mph13.0 kmh 30.23 in1023.7 mb - 0.00 in0.0 mm 0.00 in0.0 mm
12:20 PM 65.9°F18.8°C 45.1°F7.3°C 47% 6.9 mph N11.1 kmh N 10.4 mph16.7 kmh 30.23 in1023.7 mb - 0.00 in0.0 mm 0.00 in0.0 mm
12:15 PM 65.3°F18.5°C 45.1°F7.3°C 48% 3.5 mph N5.6 kmh N 5.8 mph9.3 kmh 30.23 in1023.7 mb - 0.00 in0.0 mm 0.00 in0.0 mm
12:10 PM 64.9°F18.3°C 44.7°F7.1°C 48% 9.2 mph NNW14.8 kmh NNW 11.5 mph18.5 kmh 30.23 in1023.7 mb - 0.00 in0.0 mm 0.00 in0.0 mm
12:05 PM 64.9°F18.3°C 44.2°F6.8°C 47% 5.8 mph N9.3 kmh N 5.8 mph9.3 kmh 30.23 in1023.7 mb - 0.00 in0.0 mm 0.00 in0.0 mm
12:00 PM 64.8°F18.2°C 44.7°F7.1°C 48% 4.6 mph N7.4 kmh N 12.7 mph20.4 kmh 30.24 in1024.0 mb - 0.00 in0.0 mm 0.00 in0.0 mm
11:55 AM 64.6°F18.1°C 44.4°F6.9°C 48% 5.8 mph N9.3 kmh N 10.4 mph16.7 kmh 30.24 in1024.0 mb - 0.00 in0.0 mm 0.00 in0.0 mm
11:50 AM 64.1°F17.8°C 45.6°F7.6°C 51% 4.6 mph N7.4 kmh N 11.5 mph18.5 kmh 30.24 in1024.0 mb - 0.00 in0.0 mm 0.00 in0.0 mm
11:45 AM 64.3°F17.9°C 45.2°F7.3°C 50% 11.5 mph NNW18.5 kmh NNW 12.7 mph20.4 kmh 30.24 in1024.0 mb - 0.00 in0.0 mm 0.00 in0.0 mm
11:40 AM 64.9°F18.3°C 45.8°F7.7°C 50% 5.8 mph N9.3 kmh N 15.0 mph24.1 kmh 30.24 in1024.0 mb - 0.00 in0.0 mm 0.00 in0.0 mm
11:35 AM 65.3°F18.5°C 46.2°F7.9°C 50% 5.8 mph NNW9.3 kmh NNW 13.8 mph22.2 kmh 30.24 in1024.0 mb - 0.00 in0.0 mm 0.00 in0.0 mm
11:30 AM 65.3°F18.5°C 46.1°F7.8°C 50% 6.9 mph NNE11.1 kmh NNE 12.7 mph20.4 kmh 30.24 in1024.0 mb - 0.00 in0.0 mm 0.00 in0.0 mm
11:25 AM 65.0°F18.3°C 43.7°F6.5°C 46% 4.6 mph N7.4 kmh N 8.1 mph13.0 kmh 30.24 in1024.0 mb - 0.00 in0.0 mm 0.00 in0.0 mm
11:20 AM 64.7°F18.2°C 43.4°F6.3°C 46% 6.9 mph NNW11.1 kmh NNW 11.5 mph18.5 kmh 30.24 in1024.0 mb - 0.00 in0.0 mm 0.00 in0.0 mm
11:15 AM 64.4°F18.0°C 44.3°F6.8°C 48% 5.8 mph N9.3 kmh N 6.9 mph11.1 kmh 30.24 in1024.0 mb - 0.00 in0.0 mm 0.00 in0.0 mm
11:10 AM 64.2°F17.9°C 44.1°F6.7°C 48% 5.8 mph N9.3 kmh N 9.2 mph14.8 kmh 30.24 in1024.0 mb - 0.00 in0.0 mm 0.00 in0.0 mm
11:05 AM 64.3°F17.9°C 44.2°F6.8°C 48% 8.1 mph NW13.0 kmh NW 9.2 mph14.8 kmh 30.25 in1024.4 mb - 0.00 in0.0 mm 0.00 in0.0 mm
11:00 AM 64.3°F17.9°C 44.2°F6.8°C 48% 4.6 mph N7.4 kmh N 11.5 mph18.5 kmh 30.25 in1024.4 mb - 0.00 in0.0 mm 0.00 in0.0 mm
10:55 AM 64.4°F18.0°C 43.2°F6.2°C 46% 6.9 mph N11.1 kmh N 11.5 mph18.5 kmh 30.25 in1024.4 mb - 0.00 in0.0 mm 0.00 in0.0 mm
10:50 AM 64.7°F18.2°C 43.4°F6.3°C 46% 5.8 mph N9.3 kmh N 12.7 mph20.4 kmh 30.24 in1024.0 mb - 0.00 in0.0 mm 0.00 in0.0 mm
10:45 AM 64.3°F17.9°C 44.7°F7.1°C 49% 3.5 mph WNW5.6 kmh WNW 3.5 mph5.6 kmh 30.25 in1024.4 mb - 0.00 in0.0 mm 0.00 in0.0 mm
10:40 AM 64.1°F17.8°C 45.1°F7.3°C 50% 4.6 mph NNW7.4 kmh NNW 8.1 mph13.0 kmh 30.25 in1024.4 mb - 0.00 in0.0 mm 0.00 in0.0 mm
10:35 AM 64.2°F17.9°C 46.2°F7.9°C 52% 3.5 mph N5.6 kmh N 9.2 mph14.8 kmh 30.25 in1024.4 mb - 0.00 in0.0 mm 0.00 in0.0 mm
10:30 AM 63.9°F17.7°C 45.4°F7.4°C 51% 3.5 mph SW5.6 kmh SW 4.6 mph7.4 kmh 30.25 in1024.4 mb - 0.00 in0.0 mm 0.00 in0.0 mm
10:25 AM 64.0°F17.8°C 44.4°F6.9°C 49% 2.3 mph WSW3.7 kmh WSW 3.5 mph5.6 kmh 30.25 in1024.4 mb - 0.00 in0.0 mm 0.00 in0.0 mm
10:20 AM 64.0°F17.8°C 43.9°F6.6°C 48% 2.3 mph SW3.7 kmh SW 3.5 mph5.6 kmh 30.25 in1024.4 mb - 0.00 in0.0 mm 0.00 in0.0 mm
10:15 AM 64.1°F17.8°C 44.0°F6.7°C 48% 2.3 mph SSE3.7 kmh SSE 5.8 mph9.3 kmh 30.25 in1024.4 mb - 0.00 in0.0 mm 0.00 in0.0 mm
10:10 AM 63.8°F17.7°C 43.7°F6.5°C 48% 1.2 mph SE1.9 kmh SE 2.3 mph3.7 kmh 30.25 in1024.4 mb - 0.00 in0.0 mm 0.00 in0.0 mm
10:05 AM 63.8°F17.7°C 43.1°F6.2°C 47% 1.2 mph SE1.9 kmh SE 2.3 mph3.7 kmh 30.25 in1024.4 mb - 0.00 in0.0 mm 0.00 in0.0 mm
10:00 AM 63.6°F17.6°C 43.5°F6.4°C 48% Calm Calm -- 30.25 in1024.4 mb - 0.00 in0.0 mm 0.00 in0.0 mm
09:55 AM 63.3°F17.4°C 43.8°F6.6°C 49% 2.3 mph SE3.7 kmh SE 3.5 mph5.6 kmh 30.25 in1024.4 mb - 0.00 in0.0 mm 0.00 in0.0 mm
09:50 AM 63.2°F17.3°C 44.2°F6.8°C 50% 2.3 mph S3.7 kmh S 4.6 mph7.4 kmh 30.25 in1024.4 mb - 0.00 in0.0 mm 0.00 in0.0 mm
09:45 AM 62.9°F17.2°C 44.0°F6.7°C 50% 2.3 mph SE3.7 kmh SE 3.5 mph5.6 kmh 30.25 in1024.4 mb - 0.00 in0.0 mm 0.00 in0.0 mm
09:40 AM 62.5°F16.9°C 43.6°F6.4°C 50% 2.3 mph SSW3.7 kmh SSW 3.5 mph5.6 kmh 30.25 in1024.4 mb - 0.00 in0.0 mm 0.00 in0.0 mm
09:35 AM 61.8°F16.6°C 44.5°F6.9°C 53% 2.3 mph WNW3.7 kmh WNW 3.5 mph5.6 kmh 30.25 in1024.4 mb - 0.00 in0.0 mm 0.00 in0.0 mm
09:30 AM 61.4°F16.3°C 45.5°F7.5°C 56% 2.3 mph WNW3.7 kmh WNW 3.5 mph5.6 kmh 30.25 in1024.4 mb - 0.00 in0.0 mm 0.00 in0.0 mm
09:25 AM 61.3°F16.3°C 45.5°F7.5°C 56% 2.3 mph NW3.7 kmh NW 3.5 mph5.6 kmh 30.24 in1024.0 mb - 0.00 in0.0 mm 0.00 in0.0 mm
09:20 AM 61.1°F16.2°C 46.2°F7.9°C 58% 2.3 mph WNW3.7 kmh WNW 2.3 mph3.7 kmh 30.24 in1024.0 mb - 0.00 in0.0 mm 0.00 in0.0 mm
09:15 AM 61.3°F16.3°C 45.5°F7.5°C 56% 3.5 mph NW5.6 kmh NW 4.6 mph7.4 kmh 30.24 in1024.0 mb - 0.00 in0.0 mm 0.00 in0.0 mm
09:10 AM 60.6°F15.9°C 44.8°F7.1°C 56% Calm Calm 1.2 mph1.9 kmh 30.24 in1024.0 mb - 0.00 in0.0 mm 0.00 in0.0 mm
09:05 AM 60.1°F15.6°C 44.8°F7.1°C 57% 1.2 mph NW1.9 kmh NW 2.3 mph3.7 kmh 30.24 in1024.0 mb - 0.00 in0.0 mm 0.00 in0.0 mm
09:00 AM 59.7°F15.4°C 43.5°F6.4°C 55% 2.3 mph NW3.7 kmh NW 3.5 mph5.6 kmh 30.24 in1024.0 mb - 0.00 in0.0 mm 0.00 in0.0 mm
08:55 AM 59.3°F15.2°C 44.0°F6.7°C 57% 1.2 mph N1.9 kmh N 2.3 mph3.7 kmh 30.24 in1024.0 mb - 0.00 in0.0 mm 0.00 in0.0 mm
08:50 AM 59.0°F15.0°C 43.8°F6.6°C 57% 1.2 mph N1.9 kmh N 1.2 mph1.9 kmh 30.24 in1024.0 mb - 0.00 in0.0 mm 0.00 in0.0 mm
08:45 AM 58.9°F14.9°C 44.1°F6.7°C 58% 1.2 mph N1.9 kmh N 2.3 mph3.7 kmh 30.24 in1024.0 mb - 0.00 in0.0 mm 0.00 in0.0 mm
08:40 AM 58.1°F14.5°C 43.8°F6.6°C 59% 1.2 mph N1.9 kmh N 2.3 mph3.7 kmh 30.24 in1024.0 mb - 0.00 in0.0 mm 0.00 in0.0 mm
08:35 AM 57.6°F14.2°C 43.8°F6.6°C 60% 2.3 mph N3.7 kmh N 3.5 mph5.6 kmh 30.24 in1024.0 mb - 0.00 in0.0 mm 0.00 in0.0 mm
08:30 AM 57.4°F14.1°C 44.1°F6.7°C 61% 2.3 mph NNW3.7 kmh NNW 3.5 mph5.6 kmh 30.24 in1024.0 mb - 0.00 in0.0 mm 0.00 in0.0 mm
08:25 AM 57.0°F13.9°C 44.1°F6.7°C 62% 1.2 mph N1.9 kmh N 3.5 mph5.6 kmh 30.24 in1024.0 mb - 0.00 in0.0 mm 0.00 in0.0 mm
08:20 AM 56.7°F13.7°C 43.4°F6.3°C 61% 3.5 mph N5.6 kmh N 4.6 mph7.4 kmh 30.24 in1024.0 mb - 0.00 in0.0 mm 0.00 in0.0 mm
08:15 AM 56.8°F13.8°C 44.3°F6.8°C 63% 5.8 mph N9.3 kmh N 5.8 mph9.3 kmh 30.24 in1024.0 mb - 0.00 in0.0 mm 0.00 in0.0 mm
08:10 AM 57.0°F13.9°C 44.5°F6.9°C 63% 3.5 mph NW5.6 kmh NW 6.9 mph11.1 kmh 30.24 in1024.0 mb - 0.00 in0.0 mm 0.00 in0.0 mm
08:05 AM 57.4°F14.1°C 44.1°F6.7°C 61% 3.5 mph NNW5.6 kmh NNW 4.6 mph7.4 kmh 30.24 in1024.0 mb - 0.00 in0.0 mm 0.00 in0.0 mm
08:00 AM 57.7°F14.3°C 43.5°F6.4°C 59% 2.3 mph ESE3.7 kmh ESE 3.5 mph5.6 kmh 30.24 in1024.0 mb - 0.00 in0.0 mm 0.00 in0.0 mm
07:55 AM 57.2°F14.0°C 43.4°F6.3°C 60% Calm Calm -- 30.24 in1024.0 mb - 0.00 in0.0 mm 0.00 in0.0 mm
07:50 AM 56.7°F13.7°C 43.4°F6.3°C 61% 1.2 mph ESE1.9 kmh ESE 2.3 mph3.7 kmh 30.24 in1024.0 mb - 0.00 in0.0 mm 0.00 in0.0 mm
07:45 AM 56.0°F13.3°C 43.2°F6.2°C 62% 2.3 mph ESE3.7 kmh ESE 3.5 mph5.6 kmh 30.24 in1024.0 mb - 0.00 in0.0 mm 0.00 in0.0 mm
07:40 AM 55.3°F12.9°C 43.8°F6.6°C 65% 1.2 mph ESE1.9 kmh ESE 1.2 mph1.9 kmh 30.24 in1024.0 mb - 0.00 in0.0 mm 0.00 in0.0 mm
07:35 AM 54.9°F12.7°C 43.4°F6.3°C 65% 2.3 mph ESE3.7 kmh ESE 3.5 mph5.6 kmh 30.24 in1024.0 mb - 0.00 in0.0 mm 0.00 in0.0 mm
07:30 AM 54.7°F12.6°C 44.3°F6.8°C 68% 2.3 mph NE3.7 kmh NE 3.5 mph5.6 kmh 30.24 in1024.0 mb - 0.00 in0.0 mm 0.00 in0.0 mm
07:25 AM 54.5°F12.5°C 44.2°F6.8°C 68% 2.3 mph NE3.7 kmh NE 3.5 mph5.6 kmh 30.24 in1024.0 mb - 0.00 in0.0 mm 0.00 in0.0 mm
07:20 AM 54.2°F12.3°C 43.8°F6.6°C 68% 2.3 mph N3.7 kmh N 3.5 mph5.6 kmh 30.24 in1024.0 mb - 0.00 in0.0 mm 0.00 in0.0 mm
07:15 AM 53.9°F12.2°C 43.6°F6.4°C 68% 1.2 mph N1.9 kmh N 2.3 mph3.7 kmh 30.24 in1024.0 mb - 0.00 in0.0 mm 0.00 in0.0 mm
07:10 AM 53.6°F12.0°C 44.4°F6.9°C 71% Calm Calm -- 30.24 in1024.0 mb - 0.00 in0.0 mm 0.00 in0.0 mm
07:05 AM 53.1°F11.7°C 44.0°F6.7°C 71% 1.2 mph N1.9 kmh N 1.2 mph1.9 kmh 30.24 in1024.0 mb - 0.00 in0.0 mm 0.00 in0.0 mm
07:00 AM 52.7°F11.5°C 43.9°F6.6°C 72% 1.2 mph N1.9 kmh N 1.2 mph1.9 kmh 30.24 in1024.0 mb - 0.00 in0.0 mm 0.00 in0.0 mm
06:55 AM 52.2°F11.2°C 43.8°F6.6°C 73% Calm Calm -- 30.24 in1024.0 mb - 0.00 in0.0 mm 0.00 in0.0 mm
06:50 AM 51.7°F10.9°C 43.3°F6.3°C 73% Calm Calm -- 30.24 in1024.0 mb - 0.00 in0.0 mm 0.00 in0.0 mm
06:45 AM 51.2°F10.7°C 42.8°F6.0°C 73% Calm Calm -- 30.24 in1024.0 mb - 0.00 in0.0 mm 0.00 in0.0 mm
06:40 AM 50.9°F10.5°C 42.5°F5.8°C 73% Calm Calm 1.2 mph1.9 kmh 30.24 in1024.0 mb - 0.00 in0.0 mm 0.00 in0.0 mm
06:35 AM 50.5°F10.3°C 42.5°F5.8°C 74% 1.2 mph NE1.9 kmh NE 3.5 mph5.6 kmh 30.23 in1023.7 mb - 0.00 in0.0 mm 0.00 in0.0 mm
06:30 AM 50.4°F10.2°C 42.4°F5.8°C 74% 2.3 mph NE3.7 kmh NE 3.5 mph5.6 kmh 30.23 in1023.7 mb - 0.00 in0.0 mm 0.00 in0.0 mm
06:25 AM 50.5°F10.3°C 42.9°F6.1°C 75% 1.2 mph NNE1.9 kmh NNE 2.3 mph3.7 kmh 30.23 in1023.7 mb - 0.00 in0.0 mm 0.00 in0.0 mm
06:20 AM 50.7°F10.4°C 43.1°F6.2°C 75% 1.2 mph NNE1.9 kmh NNE 2.3 mph3.7 kmh 30.23 in1023.7 mb - 0.00 in0.0 mm 0.00 in0.0 mm
06:15 AM 50.8°F10.4°C 42.8°F6.0°C 74% Calm Calm 1.2 mph1.9 kmh 30.23 in1023.7 mb - 0.00 in0.0 mm 0.00 in0.0 mm
06:10 AM 51.1°F10.6°C 43.1°F6.2°C 74% Calm Calm 2.3 mph3.7 kmh 30.23 in1023.7 mb - 0.00 in0.0 mm 0.00 in0.0 mm
06:05 AM 51.5°F10.8°C 42.8°F6.0°C 72% 2.3 mph NNE3.7 kmh NNE 3.5 mph5.6 kmh 30.23 in1023.7 mb - 0.00 in0.0 mm 0.00 in0.0 mm
06:00 AM 51.8°F11.0°C 42.7°F5.9°C 71% Calm Calm 1.2 mph1.9 kmh 30.23 in1023.7 mb - 0.00 in0.0 mm 0.00 in0.0 mm
05:55 AM 51.6°F10.9°C 42.5°F5.8°C 71% 2.3 mph NNE3.7 kmh NNE 3.5 mph5.6 kmh 30.23 in1023.7 mb - 0.00 in0.0 mm 0.00 in0.0 mm
05:50 AM 51.0°F10.6°C 42.7°F5.9°C 73% 3.5 mph N5.6 kmh N 3.5 mph5.6 kmh 30.23 in1023.7 mb - 0.00 in0.0 mm 0.00 in0.0 mm
05:45 AM 50.7°F10.4°C 42.7°F5.9°C 74% Calm Calm -- 30.23 in1023.7 mb - 0.00 in0.0 mm 0.00 in0.0 mm
05:40 AM 50.8°F10.4°C 42.8°F6.0°C 74% Calm Calm -- 30.22 in1023.4 mb - 0.00 in0.0 mm 0.00 in0.0 mm
05:35 AM 51.0°F10.6°C 43.0°F6.1°C 74% Calm Calm -- 30.22 in1023.4 mb - 0.00 in0.0 mm 0.00 in0.0 mm
05:30 AM 51.2°F10.7°C 42.8°F6.0°C 73% Calm Calm -- 30.22 in1023.4 mb - 0.00 in0.0 mm 0.00 in0.0 mm
05:25 AM 51.4°F10.8°C 43.0°F6.1°C 73% Calm Calm -- 30.22 in1023.4 mb - 0.00 in0.0 mm 0.00 in0.0 mm
05:20 AM 51.4°F10.8°C 43.0°F6.1°C 73% 1.2 mph NE1.9 kmh NE 2.3 mph3.7 kmh 30.22 in1023.4 mb - 0.00 in0.0 mm 0.00 in0.0 mm
05:15 AM 51.2°F10.7°C 42.9°F6.1°C 73% 1.2 mph NNE1.9 kmh NNE 3.5 mph5.6 kmh 30.22 in1023.4 mb - 0.00 in0.0 mm 0.00 in0.0 mm
05:10 AM 50.5°F10.3°C 42.9°F6.1°C 75% 3.5 mph N5.6 kmh N 3.5 mph5.6 kmh 30.22 in1023.4 mb - 0.00 in0.0 mm 0.00 in0.0 mm
05:05 AM 50.4°F10.2°C 43.5°F6.4°C 77% Calm Calm 2.3 mph3.7 kmh 30.22 in1023.4 mb - 0.00 in0.0 mm 0.00 in0.0 mm
05:00 AM 50.4°F10.2°C 43.5°F6.4°C 77% Calm Calm -- 30.22 in1023.4 mb - 0.00 in0.0 mm 0.00 in0.0 mm
04:55 AM 50.4°F10.2°C 43.1°F6.2°C 76% 2.3 mph ESE3.7 kmh ESE 3.5 mph5.6 kmh 30.22 in1023.4 mb - 0.00 in0.0 mm 0.00 in0.0 mm
04:50 AM 50.6°F10.3°C 43.7°F6.5°C 77% 1.2 mph ESE1.9 kmh ESE 2.3 mph3.7 kmh 30.22 in1023.4 mb - 0.00 in0.0 mm 0.00 in0.0 mm
04:45 AM 50.6°F10.3°C 43.6°F6.4°C 77% 1.2 mph ESE1.9 kmh ESE 2.3 mph3.7 kmh 30.22 in1023.4 mb - 0.00 in0.0 mm 0.00 in0.0 mm
04:40 AM 50.6°F10.3°C 43.7°F6.5°C 77% 1.2 mph ESE1.9 kmh ESE 1.2 mph1.9 kmh 30.22 in1023.4 mb - 0.00 in0.0 mm 0.00 in0.0 mm
04:35 AM 50.6°F10.3°C 43.3°F6.3°C 76% Calm Calm -- 30.21 in1023.0 mb - 0.00 in0.0 mm 0.00 in0.0 mm
04:30 AM 50.7°F10.4°C 43.4°F6.3°C 76% 1.2 mph ESE1.9 kmh ESE 2.3 mph3.7 kmh 30.21 in1023.0 mb - 0.00 in0.0 mm 0.00 in0.0 mm
04:25 AM 50.7°F10.4°C 43.8°F6.6°C 77% Calm Calm -- 30.21 in1023.0 mb - 0.00 in0.0 mm 0.00 in0.0 mm
04:20 AM 50.8°F10.4°C 43.5°F6.4°C 76% 1.2 mph ESE1.9 kmh ESE 3.5 mph5.6 kmh 30.21 in1023.0 mb - 0.00 in0.0 mm 0.00 in0.0 mm
04:15 AM 50.8°F10.4°C 43.8°F6.6°C 77% Calm Calm -- 30.21 in1023.0 mb - 0.00 in0.0 mm 0.00 in0.0 mm
04:10 AM 50.8°F10.4°C 44.2°F6.8°C 78% Calm Calm -- 30.21 in1023.0 mb - 0.00 in0.0 mm 0.00 in0.0 mm
04:05 AM 50.8°F10.4°C 43.9°F6.6°C 77% 1.2 mph ESE1.9 kmh ESE 1.2 mph1.9 kmh 30.21 in1023.0 mb - 0.00 in0.0 mm 0.00 in0.0 mm
04:00 AM 50.9°F10.5°C 43.9°F6.6°C 77% Calm Calm -- 30.21 in1023.0 mb - 0.00 in0.0 mm 0.00 in0.0 mm
03:55 AM 51.0°F10.6°C 44.0°F6.7°C 77% 1.2 mph ESE1.9 kmh ESE 2.3 mph3.7 kmh 30.21 in1023.0 mb - 0.00 in0.0 mm 0.00 in0.0 mm
03:50 AM 51.2°F10.7°C 43.9°F6.6°C 76% Calm Calm 2.3 mph3.7 kmh 30.21 in1023.0 mb - 0.00 in0.0 mm 0.00 in0.0 mm
03:45 AM 51.3°F10.7°C 44.0°F6.7°C 76% 1.2 mph ESE1.9 kmh ESE 3.5 mph5.6 kmh 30.21 in1023.0 mb - 0.00 in0.0 mm 0.00 in0.0 mm
03:40 AM 51.5°F10.8°C 44.2°F6.8°C 76% 1.2 mph ESE1.9 kmh ESE 2.3 mph3.7 kmh 30.21 in1023.0 mb - 0.00 in0.0 mm 0.00 in0.0 mm
03:35 AM 51.8°F11.0°C 44.1°F6.7°C 75% Calm Calm 1.2 mph1.9 kmh 30.21 in1023.0 mb - 0.00 in0.0 mm 0.00 in0.0 mm
03:30 AM 52.0°F11.1°C 44.3°F6.8°C 75% Calm Calm 2.3 mph3.7 kmh 30.21 in1023.0 mb - 0.00 in0.0 mm 0.00 in0.0 mm
03:25 AM 52.1°F11.2°C 44.4°F6.9°C 75% Calm Calm -- 30.21 in1023.0 mb - 0.00 in0.0 mm 0.00 in0.0 mm
03:20 AM 52.0°F11.1°C 44.3°F6.8°C 75% 1.2 mph ESE1.9 kmh ESE 2.3 mph3.7 kmh 30.21 in1023.0 mb - 0.00 in0.0 mm 0.00 in0.0 mm
03:15 AM 51.9°F11.1°C 44.2°F6.8°C 75% Calm Calm -- 30.21 in1023.0 mb - 0.00 in0.0 mm 0.00 in0.0 mm
03:10 AM 51.9°F11.1°C 43.9°F6.6°C 74% Calm Calm -- 30.21 in1023.0 mb - 0.00 in0.0 mm 0.00 in0.0 mm
03:05 AM 52.0°F11.1°C 44.0°F6.7°C 74% Calm Calm -- 30.21 in1023.0 mb - 0.00 in0.0 mm 0.00 in0.0 mm
03:00 AM 52.0°F11.1°C 44.0°F6.7°C 74% Calm Calm -- 30.21 in1023.0 mb - 0.00 in0.0 mm 0.00 in0.0 mm
02:55 AM 52.1°F11.2°C 44.1°F6.7°C 74% Calm Calm -- 30.21 in1023.0 mb - 0.00 in0.0 mm 0.00 in0.0 mm
02:50 AM 52.2°F11.2°C 43.8°F6.6°C 73% 1.2 mph ESE1.9 kmh ESE 1.2 mph1.9 kmh 30.21 in1023.0 mb - 0.00 in0.0 mm 0.00 in0.0 mm
02:45 AM 52.3°F11.3°C 43.9°F6.6°C 73% 1.2 mph ESE1.9 kmh ESE 3.5 mph5.6 kmh 30.21 in1023.0 mb - 0.00 in0.0 mm 0.00 in0.0 mm
02:40 AM 52.6°F11.4°C 44.2°F6.8°C 73% 1.2 mph ESE1.9 kmh ESE 1.2 mph1.9 kmh 30.21 in1023.0 mb - 0.00 in0.0 mm 0.00 in0.0 mm
02:35 AM 52.9°F11.6°C 44.1°F6.7°C 72% Calm Calm 1.2 mph1.9 kmh 30.21 in1023.0 mb - 0.00 in0.0 mm 0.00 in0.0 mm
02:30 AM 53.4°F11.9°C 43.9°F6.6°C 70% 2.3 mph E3.7 kmh E 3.5 mph5.6 kmh 30.21 in1023.0 mb - 0.00 in0.0 mm 0.00 in0.0 mm
02:25 AM 53.7°F12.1°C 44.1°F6.7°C 70% 1.2 mph N1.9 kmh N 1.2 mph1.9 kmh 30.21 in1023.0 mb - 0.00 in0.0 mm 0.00 in0.0 mm
02:20 AM 53.6°F12.0°C 44.0°F6.7°C 70% 2.3 mph N3.7 kmh N 3.5 mph5.6 kmh 30.21 in1023.0 mb - 0.00 in0.0 mm 0.00 in0.0 mm
02:15 AM 53.6°F12.0°C 44.0°F6.7°C 70% 2.3 mph N3.7 kmh N 3.5 mph5.6 kmh 30.21 in1023.0 mb - 0.00 in0.0 mm 0.00 in0.0 mm
02:10 AM 53.4°F11.9°C 44.2°F6.8°C 71% 2.3 mph N3.7 kmh N 3.5 mph5.6 kmh 30.21 in1023.0 mb - 0.00 in0.0 mm 0.00 in0.0 mm
02:05 AM 53.2°F11.8°C 44.0°F6.7°C 71% 1.2 mph N1.9 kmh N 2.3 mph3.7 kmh 30.21 in1023.0 mb - 0.00 in0.0 mm 0.00 in0.0 mm
02:00 AM 53.1°F11.7°C 44.0°F6.7°C 71% 1.2 mph ESE1.9 kmh ESE 3.5 mph5.6 kmh 30.21 in1023.0 mb - 0.00 in0.0 mm 0.00 in0.0 mm
01:55 AM 53.2°F11.8°C 44.0°F6.7°C 71% Calm Calm 1.2 mph1.9 kmh 30.21 in1023.0 mb - 0.00 in0.0 mm 0.00 in0.0 mm
01:50 AM 53.5°F11.9°C 44.3°F6.8°C 71% Calm Calm -- 30.21 in1023.0 mb - 0.00 in0.0 mm 0.00 in0.0 mm
01:45 AM 53.5°F11.9°C 44.3°F6.8°C 71% Calm Calm 2.3 mph3.7 kmh 30.21 in1023.0 mb - 0.00 in0.0 mm 0.00 in0.0 mm
01:40 AM 53.3°F11.8°C 44.5°F6.9°C 72% 1.2 mph ESE1.9 kmh ESE 3.5 mph5.6 kmh 30.21 in1023.0 mb - 0.00 in0.0 mm 0.00 in0.0 mm
01:35 AM 53.0°F11.7°C 44.6°F7.0°C 73% 2.3 mph ESE3.7 kmh ESE 3.5 mph5.6 kmh 30.21 in1023.0 mb - 0.00 in0.0 mm 0.00 in0.0 mm
01:30 AM 53.0°F11.7°C 44.2°F6.8°C 72% Calm Calm -- 30.21 in1023.0 mb - 0.00 in0.0 mm 0.00 in0.0 mm
01:25 AM 53.1°F11.7°C 44.3°F6.8°C 72% 1.2 mph ESE1.9 kmh ESE 1.2 mph1.9 kmh 30.21 in1023.0 mb - 0.00 in0.0 mm 0.00 in0.0 mm
01:20 AM 53.2°F11.8°C 44.0°F6.7°C 71% 1.2 mph ESE1.9 kmh ESE 2.3 mph3.7 kmh 30.21 in1023.0 mb - 0.00 in0.0 mm 0.00 in0.0 mm
01:15 AM 53.4°F11.9°C 44.6°F7.0°C 72% 2.3 mph ESE3.7 kmh ESE 3.5 mph5.6 kmh 30.21 in1023.0 mb - 0.00 in0.0 mm 0.00 in0.0 mm
01:10 AM 53.5°F11.9°C 44.7°F7.1°C 72% 1.2 mph SE1.9 kmh SE 3.5 mph5.6 kmh 30.21 in1023.0 mb - 0.00 in0.0 mm 0.00 in0.0 mm
01:05 AM 53.7°F12.1°C 44.9°F7.2°C 72% Calm Calm -- 30.21 in1023.0 mb - 0.00 in0.0 mm 0.00 in0.0 mm
01:00 AM 53.9°F12.2°C 44.4°F6.9°C 70% 1.2 mph SE1.9 kmh SE 1.2 mph1.9 kmh 30.21 in1023.0 mb - 0.00 in0.0 mm 0.00 in0.0 mm
12:55 AM 54.3°F12.4°C 44.3°F6.8°C 69% 2.3 mph SE3.7 kmh SE 3.5 mph5.6 kmh 30.21 in1023.0 mb - 0.00 in0.0 mm 0.00 in0.0 mm
12:50 AM 54.4°F12.4°C 44.1°F6.7°C 68% 1.2 mph N1.9 kmh N 3.5 mph5.6 kmh 30.21 in1023.0 mb - 0.00 in0.0 mm 0.00 in0.0 mm
12:45 AM 54.4°F12.4°C 44.8°F7.1°C 70% 2.3 mph N3.7 kmh N 3.5 mph5.6 kmh 30.21 in1023.0 mb - 0.00 in0.0 mm 0.00 in0.0 mm
12:40 AM 54.1°F12.3°C 44.5°F6.9°C 70% 1.2 mph N1.9 kmh N 3.5 mph5.6 kmh 30.21 in1023.0 mb - 0.00 in0.0 mm 0.00 in0.0 mm
12:35 AM 54.0°F12.2°C 45.5°F7.5°C 73% Calm Calm 3.5 mph5.6 kmh 30.21 in1023.0 mb - 0.00 in0.0 mm 0.00 in0.0 mm
12:30 AM 54.0°F12.2°C 45.5°F7.5°C 73% Calm Calm -- 30.21 in1023.0 mb - 0.00 in0.0 mm 0.00 in0.0 mm
12:25 AM 53.9°F12.2°C 45.8°F7.7°C 74% 2.3 mph NNW3.7 kmh NNW 3.5 mph5.6 kmh 30.21 in1023.0 mb - 0.00 in0.0 mm 0.00 in0.0 mm
12:20 AM 54.1°F12.3°C 45.6°F7.6°C 73% Calm Calm -- 30.20 in1022.7 mb - 0.00 in0.0 mm 0.00 in0.0 mm
12:15 AM 54.2°F12.3°C 45.4°F7.4°C 72% Calm Calm -- 30.20 in1022.7 mb - 0.00 in0.0 mm 0.00 in0.0 mm
12:10 AM 54.5°F12.5°C 45.7°F7.6°C 72% 1.2 mph ESE1.9 kmh ESE 3.5 mph5.6 kmh 30.20 in1022.7 mb - 0.00 in0.0 mm 0.00 in0.0 mm
12:05 AM 54.7°F12.6°C 45.5°F7.5°C 71% Calm Calm -- 30.20 in1022.7 mb - 0.00 in0.0 mm 0.00 in0.0 mm
12:00 AM 55.1°F12.8°C 45.5°F7.5°C 70% 2.3 mph E3.7 kmh E 3.5 mph5.6 kmh 30.20 in1022.7 mb - 0.00 in0.0 mm 0.00 in0.0 mm